createdAt,value
2023-04-13T00:01:32.840Z,99429.81
2023-04-13T00:04:03.858Z,99438.06
2023-04-13T00:06:34.358Z,99432.84
2023-04-13T00:09:03.643Z,99436.69
2023-04-13T00:11:32.491Z,99424.75
2023-04-13T00:14:01.476Z,99423.19
2023-04-13T00:16:31.706Z,99427.28
2023-04-13T00:19:02.092Z,99430.63
2023-04-13T00:21:30.945Z,99431.41
2023-04-13T00:24:01.643Z,99429.28
2023-04-13T00:26:30.549Z,99424.56
2023-04-13T00:28:59.650Z,99429.41
2023-04-13T00:31:29.591Z,99415.50
2023-04-13T00:33:58.919Z,99429.78
2023-04-13T00:36:30.280Z,99425.88
2023-04-13T00:39:00.780Z,99425.16
2023-04-13T00:41:29.583Z,99429.97
2023-04-13T00:43:59.254Z,99426.63
2023-04-13T00:46:30.559Z,99422.81
2023-04-13T00:49:02.123Z,99427.09
2023-04-13T00:51:33.148Z,99424.88
2023-04-13T00:54:03.580Z,99426.44
2023-04-13T00:56:33.852Z,99416.00
2023-04-13T00:59:03.586Z,99415.47
2023-04-13T01:01:32.553Z,99424.31
2023-04-13T01:04:01.907Z,99419.28
2023-04-13T01:06:42.193Z,99418.56
2023-04-13T01:09:25.979Z,99407.56
2023-04-13T01:12:04.258Z,99409.44
2023-04-13T01:14:43.071Z,99410.19
2023-04-13T01:17:25.685Z,99399.66
2023-04-13T01:20:01.541Z,99396.66
2023-04-13T01:22:36.672Z,99395.91
2023-04-13T01:25:36.827Z,99400.19
2023-04-13T01:28:10.453Z,99394.22
2023-04-13T01:30:42.586Z,99389.94
2023-04-13T01:33:14.050Z,99397.75
2023-04-13T01:35:44.680Z,99395.16
2023-04-13T01:38:17.474Z,99396.09
2023-04-13T01:40:46.500Z,99398.63
2023-04-13T01:43:18.310Z,99401.13
2023-04-13T01:46:04.979Z,99400.38
2023-04-13T01:48:46.636Z,99398.53
2023-04-13T01:51:37.399Z,99396.19
2023-04-13T01:54:14.806Z,99392.75
2023-04-13T01:56:48.268Z,99392.53
2023-04-13T01:59:19.380Z,99402.31
2023-04-13T02:01:48.839Z,99403.38
2023-04-13T02:04:17.690Z,99396.38
2023-04-13T02:06:48.318Z,99393.13
2023-04-13T02:09:17.217Z,99398.81
2023-04-13T02:11:46.287Z,99392.84
2023-04-13T02:14:15.699Z,99387.72
2023-04-13T02:16:47.461Z,99380.56
2023-04-13T02:19:16.670Z,99376.19
2023-04-13T02:21:46.183Z,99375.63
2023-04-13T02:24:15.469Z,99381.75
2023-04-13T02:26:44.718Z,99387.16
2023-04-13T02:29:13.498Z,99379.63
2023-04-13T02:31:45.236Z,99379.72
2023-04-13T02:34:15.461Z,99386.91
2023-04-13T02:36:45.334Z,99383.66
2023-04-13T02:39:14.355Z,99385.59
2023-04-13T02:41:43.641Z,99391.00
2023-04-13T02:44:18.367Z,99391.81
2023-04-13T02:46:55.394Z,99383.25
2023-04-13T02:49:25.674Z,99391.16
2023-04-13T02:52:17.632Z,99393.03
2023-04-13T02:55:00.658Z,99401.69
2023-04-13T02:57:35.490Z,99400.75
2023-04-13T03:00:10.746Z,99405.19
2023-04-13T03:02:48.506Z,99411.84
2023-04-13T03:05:21.438Z,99419.19
2023-04-13T03:07:50.542Z,99422.69
2023-04-13T03:10:20.152Z,99434.81
2023-04-13T03:12:50.511Z,99438.50
2023-04-13T03:15:19.703Z,99436.59
2023-04-13T03:17:49.155Z,99439.63
2023-04-13T03:20:24.440Z,99446.78
2023-04-13T03:22:58.801Z,99439.81
2023-04-13T03:25:31.863Z,99443.53
2023-04-13T03:28:02.444Z,99449.66
2023-04-13T03:30:37.073Z,99441.34
2023-04-13T03:33:06.186Z,99433.44
2023-04-13T03:35:39.597Z,99442.94
2023-04-13T03:38:15.678Z,99447.41
2023-04-13T03:40:46.837Z,99447.22
2023-04-13T03:43:17.275Z,99447.22
2023-04-13T03:45:52.208Z,99447.22
2023-04-13T03:48:21.837Z,99453.28
2023-04-13T03:50:52.230Z,99461.19
2023-04-13T03:53:28.188Z,99456.97
2023-04-13T03:55:58.515Z,99470.09
2023-04-13T03:58:27.809Z,99475.88
2023-04-13T04:00:56.902Z,99471.44
2023-04-13T04:03:38.779Z,99477.22
2023-04-13T04:06:12.162Z,99476.00
2023-04-13T04:08:46.868Z,99494.66
2023-04-13T04:11:28.674Z,99494.09
2023-04-13T04:13:59.275Z,99495.41
2023-04-13T04:16:28.776Z,99499.16
2023-04-13T04:19:05.955Z,99494.59
2023-04-13T04:21:36.436Z,99493.41
2023-04-13T04:24:12.476Z,99488.28
2023-04-13T04:26:50.388Z,99493.72
2023-04-13T04:29:22.317Z,99496.53
2023-04-13T04:31:56.215Z,99493.44
2023-04-13T04:34:26.249Z,99486.91
2023-04-13T04:37:00.211Z,99487.91
2023-04-13T04:39:35.438Z,99488.09
2023-04-13T04:42:12.834Z,99485.00
2023-04-13T04:44:44.632Z,99495.50
2023-04-13T04:47:17.016Z,99488.84
2023-04-13T04:50:03.510Z,99478.97
2023-04-13T04:52:38.764Z,99481.06
2023-04-13T04:55:09.175Z,99473.47
2023-04-13T04:57:41.093Z,99486.50
2023-04-13T05:00:15.616Z,99484.00
2023-04-13T05:02:50.926Z,99489.25
2023-04-13T05:05:20.955Z,99492.22
2023-04-13T05:07:52.478Z,99499.63
2023-04-13T05:10:24.579Z,99492.41
2023-04-13T05:12:57.092Z,99480.38
2023-04-13T05:15:28.389Z,99479.97
2023-04-13T05:17:58.161Z,99480.50
2023-04-13T05:20:30.406Z,99482.06
2023-04-13T05:23:05.910Z,99476.72
2023-04-13T05:25:40.617Z,99480.06
2023-04-13T05:28:17.851Z,99478.81
2023-04-13T05:30:48.034Z,99484.28
2023-04-13T05:33:18.090Z,99485.06
2023-04-13T05:35:50.794Z,99482.88
2023-04-13T05:38:20.937Z,99480.97
2023-04-13T05:40:50.004Z,99489.97
2023-04-13T05:43:21.868Z,99485.75
2023-04-13T05:45:53.458Z,99484.16
2023-04-13T05:48:23.749Z,99480.88
2023-04-13T05:50:59.214Z,99473.78
2023-04-13T05:53:33.315Z,99473.13
2023-04-13T05:56:03.594Z,99472.72
2023-04-13T05:58:34.665Z,99459.19
2023-04-13T06:01:33.671Z,99463.19
2023-04-13T06:04:03.686Z,99458.56
2023-04-13T06:06:36.011Z,99444.84
2023-04-13T06:09:06.655Z,99444.00
2023-04-13T06:11:35.697Z,99438.13
2023-04-13T06:14:04.473Z,99444.78
2023-04-13T06:16:33.707Z,99445.00
2023-04-13T06:19:03.167Z,99456.63
2023-04-13T06:21:35.387Z,99458.38
2023-04-13T06:24:05.871Z,99460.69
2023-04-13T06:26:38.474Z,99447.81
2023-04-13T06:29:07.523Z,99454.78
2023-04-13T06:31:45.126Z,99443.94
2023-04-13T06:34:17.990Z,99453.94
2023-04-13T06:36:48.059Z,99444.16
2023-04-13T06:39:20.626Z,99444.81
2023-04-13T06:41:57.831Z,99442.03
2023-04-13T06:44:45.197Z,99444.56
2023-04-13T06:47:14.251Z,99440.03
2023-04-13T06:49:46.005Z,99440.16
2023-04-13T06:52:15.300Z,99440.63
2023-04-13T06:54:45.593Z,99446.47
2023-04-13T06:57:27.666Z,99442.78
2023-04-13T06:59:56.659Z,99457.50
2023-04-13T07:02:27.061Z,99460.97
2023-04-13T07:04:57.428Z,99465.28
2023-04-13T07:07:26.745Z,99464.72
2023-04-13T07:10:00.494Z,99458.44
2023-04-13T07:12:30.341Z,99461.38
2023-04-13T07:14:59.277Z,99467.38
2023-04-13T07:17:30.645Z,99466.63
2023-04-13T07:19:59.556Z,99468.31
2023-04-13T07:22:33.648Z,99468.31
2023-04-13T07:25:04.352Z,99463.22
2023-04-13T07:27:34.607Z,99461.88
2023-04-13T07:30:03.585Z,99465.56
2023-04-13T07:32:39.146Z,99459.41
2023-04-13T07:35:08.733Z,99470.03
2023-04-13T07:37:39.853Z,99475.72
2023-04-13T07:40:13.200Z,99464.09
2023-04-13T07:42:47.318Z,99462.16
2023-04-13T07:45:18.022Z,99467.97
2023-04-13T07:47:47.982Z,99478.41
2023-04-13T07:50:18.026Z,99474.16
2023-04-13T07:52:48.110Z,99475.06
2023-04-13T07:55:20.780Z,99480.44
2023-04-13T07:57:51.351Z,99478.16
2023-04-13T08:00:23.064Z,99478.16
2023-04-13T08:02:58.342Z,99478.25
2023-04-13T08:05:29.348Z,99465.50
2023-04-13T08:07:59.181Z,99478.44
2023-04-13T08:10:30.150Z,99460.72
2023-04-13T08:13:01.412Z,99467.47
2023-04-13T08:15:30.259Z,99462.19
2023-04-13T08:17:59.860Z,99456.66
2023-04-13T08:20:30.995Z,99460.63
2023-04-13T08:23:01.164Z,99458.09
2023-04-13T08:25:31.889Z,99463.75
2023-04-13T08:28:02.132Z,99454.06
2023-04-13T08:30:34.196Z,99458.75
2023-04-13T08:33:05.304Z,99455.44
2023-04-13T08:35:34.266Z,99456.72
2023-04-13T08:38:04.357Z,99466.16
2023-04-13T08:40:39.538Z,99451.72
2023-04-13T08:43:13.253Z,99460.13
2023-04-13T08:45:43.588Z,99458.25
2023-04-13T08:48:15.216Z,99458.06
2023-04-13T09:26:03.321Z,99437.44
2023-04-13T09:28:33.871Z,99450.34
2023-04-13T09:31:06.544Z,99444.53
2023-04-13T09:33:46.229Z,99445.06
2023-04-13T09:36:17.191Z,99445.56
2023-04-13T09:38:46.681Z,99448.44
2023-04-13T09:41:15.841Z,99443.06
2023-04-13T09:43:46.284Z,99459.34
2023-04-13T09:46:16.237Z,99447.56
2023-04-13T09:48:45.753Z,99459.34
2023-04-13T09:51:14.505Z,99451.59
2023-04-13T09:53:46.467Z,99449.41
2023-04-13T09:56:16.098Z,99447.56
2023-04-13T09:58:48.828Z,99455.59
2023-04-13T10:01:18.973Z,99451.59
2023-04-13T10:03:48.372Z,99456.09
2023-04-13T10:06:17.761Z,99462.91
2023-04-13T10:08:47.028Z,99452.91
2023-04-13T10:11:17.534Z,99449.75
2023-04-13T10:13:56.108Z,99458.09
2023-04-13T10:17:05.303Z,99456.13
2023-04-13T10:19:41.270Z,99457.09
2023-04-13T10:22:12.374Z,99461.63
2023-04-13T10:24:41.863Z,99462.03
2023-04-13T10:27:17.887Z,99462.66
2023-04-13T10:29:50.009Z,99465.53
2023-04-13T10:32:23.945Z,99465.94
2023-04-13T10:34:53.522Z,99466.63
2023-04-13T10:37:27.412Z,99460.63
2023-04-13T10:40:06.765Z,99464.72
2023-04-13T10:42:52.352Z,99464.72
2023-04-13T10:45:26.853Z,99459.78
2023-04-13T10:47:58.682Z,99462.25
2023-04-13T10:50:28.406Z,99459.78
2023-04-13T10:53:04.868Z,99453.38
2023-04-13T10:55:35.447Z,99454.34
2023-04-13T10:58:16.304Z,99461.94
2023-04-13T11:00:48.403Z,99446.31
2023-04-13T11:03:19.228Z,99446.59
2023-04-13T11:05:49.859Z,99443.09
2023-04-13T11:08:20.683Z,99447.81
2023-04-13T11:10:54.595Z,99437.38
2023-04-13T11:13:26.764Z,99439.69
2023-04-13T11:16:04.506Z,99434.34
2023-04-13T11:18:33.663Z,99430.47
2023-04-13T11:21:06.046Z,99437.72
2023-04-13T11:23:37.376Z,99440.31
2023-04-13T11:26:06.859Z,99438.25
2023-04-13T11:28:40.955Z,99437.53
2023-04-13T11:31:12.115Z,99436.00
2023-04-13T11:33:41.338Z,99442.19
2023-04-13T11:36:11.888Z,99436.91
2023-04-13T11:38:42.269Z,99438.56
2023-04-13T11:41:16.947Z,99428.25
2023-04-13T11:43:48.453Z,99431.56
2023-04-13T11:46:25.772Z,99435.06
2023-04-13T11:48:56.065Z,99438.84
2023-04-13T11:51:26.675Z,99441.94
2023-04-13T11:53:56.272Z,99427.78
2023-04-13T11:56:25.918Z,99444.75
2023-04-13T11:58:55.350Z,99434.91
2023-04-13T12:01:32.351Z,99434.97
2023-04-13T12:06:45.932Z,99422.78
2023-04-13T12:09:18.045Z,99438.97
2023-04-13T12:12:08.017Z,99438.25
2023-04-13T12:19:51.806Z,99445.72
2023-04-13T12:22:21.704Z,99436.84
2023-04-13T12:24:51.176Z,99430.13
2023-04-13T12:27:20.263Z,99429.31
2023-04-13T12:29:49.248Z,99422.78
2023-04-13T12:32:19.612Z,99428.75
2023-04-13T12:34:49.020Z,99421.50
2023-04-13T12:37:18.132Z,99418.66
2023-04-13T12:39:46.926Z,99422.63
2023-04-13T12:42:16.172Z,99420.47
2023-04-13T12:44:45.199Z,99421.00
2023-04-13T12:47:14.208Z,99416.94
2023-04-13T12:49:44.520Z,99423.13
2023-04-13T12:52:13.617Z,99414.63
2023-04-13T12:54:42.323Z,99422.88
2023-04-13T12:57:11.334Z,99424.91
2023-04-13T12:59:40.063Z,99418.06
2023-04-13T13:02:09.125Z,99411.13
2023-04-13T13:04:37.934Z,99415.59
2023-04-13T13:07:08.722Z,99414.19
2023-04-13T13:09:37.414Z,99407.88
2023-04-13T13:12:07.015Z,99405.94
2023-04-13T13:14:36.013Z,99404.03
2023-04-13T13:17:05.119Z,99397.34
2023-04-13T13:19:33.965Z,99405.94
2023-04-13T13:22:03.280Z,99411.59
2023-04-13T13:24:33.554Z,99398.00
2023-04-13T13:27:37.433Z,99400.13
2023-04-13T13:29:51.484Z,99409.75
2023-04-13T13:32:20.868Z,99397.56
2023-04-13T13:34:49.698Z,99399.13
2023-04-13T13:37:18.745Z,99399.69
2023-04-13T13:39:48.900Z,99395.00
2023-04-13T13:42:17.926Z,99395.94
2023-04-13T13:44:46.711Z,99393.09
2023-04-13T13:47:15.980Z,99394.19
2023-04-13T13:49:50.418Z,99392.81
2023-04-13T13:52:40.238Z,99398.81
2023-04-13T13:55:19.529Z,99397.38
2023-04-13T13:57:49.001Z,99404.03
2023-04-13T14:00:19.754Z,99396.63
2023-04-13T14:02:49.457Z,99399.31
2023-04-13T14:05:18.272Z,99394.38
2023-04-13T14:07:47.728Z,99398.25
2023-04-13T14:10:18.019Z,99397.19
2023-04-13T14:12:50.466Z,99402.16
2023-04-13T14:15:19.885Z,99404.44
2023-04-13T14:18:02.468Z,99403.94
2023-04-13T14:20:40.020Z,99397.91
2023-04-13T14:23:10.101Z,99402.28
2023-04-13T14:25:41.267Z,99403.13
2023-04-13T14:28:11.598Z,99393.09
2023-04-13T14:30:41.169Z,99392.25
2023-04-13T14:33:10.334Z,99393.16
2023-04-13T14:35:39.807Z,99391.47
2023-04-13T14:38:09.700Z,99402.00
2023-04-13T14:40:40.019Z,99405.28
2023-04-13T14:43:09.112Z,99400.63
2023-04-13T14:45:37.906Z,99395.94
2023-04-13T14:48:07.553Z,99408.03
2023-04-13T14:50:39.313Z,99405.19
2023-04-13T14:53:09.470Z,99408.84
2023-04-13T14:55:38.238Z,99404.03
2023-04-13T14:58:08.683Z,99413.19
2023-04-13T15:00:40.265Z,99403.22
2023-04-13T15:03:11.394Z,99413.81
2023-04-13T15:05:41.263Z,99411.50
2023-04-13T15:08:11.816Z,99418.03
2023-04-13T15:10:42.422Z,99416.00
2023-04-13T15:13:13.127Z,99410.88
2023-04-13T15:15:42.054Z,99413.47
2023-04-13T15:18:11.324Z,99409.78
2023-04-13T15:20:40.282Z,99418.19
2023-04-13T15:23:09.417Z,99409.75
2023-04-13T15:25:39.161Z,99419.88
2023-04-13T15:28:08.359Z,99418.25
2023-04-13T15:30:38.630Z,99424.44
2023-04-13T15:33:07.984Z,99425.47
2023-04-13T15:35:37.252Z,99424.81
2023-04-13T15:38:06.471Z,99427.22
2023-04-13T15:40:36.370Z,99424.59
2023-04-13T15:43:06.547Z,99432.78
2023-04-13T15:45:35.765Z,99429.09
2023-04-13T15:48:07.216Z,99429.44
2023-04-13T15:50:36.290Z,99435.97
2023-04-13T15:53:05.843Z,99433.00
2023-04-13T15:55:35.727Z,99441.03
2023-04-13T15:58:04.834Z,99435.22
2023-04-13T16:00:33.620Z,99434.75
2023-04-13T16:03:02.909Z,99439.16
2023-04-13T16:05:33.430Z,99440.75
2023-04-13T16:08:02.834Z,99444.75
2023-04-13T16:10:31.735Z,99445.91
2023-04-13T16:13:02.821Z,99446.13
2023-04-13T16:15:31.587Z,99444.31
2023-04-13T16:18:00.652Z,99456.47
2023-04-13T16:20:29.707Z,99450.50
2023-04-13T16:23:03.761Z,99449.16
2023-04-13T16:25:33.233Z,99456.63
2023-04-13T16:28:03.024Z,99450.84
2023-04-13T16:30:32.280Z,99457.03
2023-04-13T16:33:02.285Z,99455.19
2023-04-13T16:35:31.817Z,99456.53
2023-04-13T16:38:02.236Z,99455.38
2023-04-13T16:40:31.458Z,99460.69
2023-04-13T16:43:01.744Z,99460.03
2023-04-13T16:45:30.454Z,99457.69
2023-04-13T16:47:59.564Z,99462.16
2023-04-13T16:50:31.445Z,99463.59
2023-04-13T16:53:02.637Z,99461.75
2023-04-13T16:55:31.492Z,99470.00
2023-04-13T16:58:00.474Z,99460.69
2023-04-13T17:00:29.396Z,99459.00
2023-04-13T17:02:58.463Z,99472.56
2023-04-13T17:05:28.523Z,99468.50
2023-04-13T17:07:57.539Z,99470.44
2023-04-13T17:10:27.783Z,99476.84
2023-04-13T17:12:57.450Z,99485.50
2023-04-13T17:15:26.368Z,99487.94
2023-04-13T17:17:55.563Z,99486.69
2023-04-13T17:20:24.623Z,99492.38
2023-04-13T17:22:54.198Z,99501.53
2023-04-13T17:25:22.881Z,99497.31
2023-04-13T17:27:53.460Z,99494.44
2023-04-13T17:30:22.674Z,99498.13
2023-04-13T17:32:51.949Z,99498.22
2023-04-13T17:35:21.434Z,99505.53
2023-04-13T17:37:50.790Z,99502.94
2023-04-13T17:40:20.584Z,99508.97
2023-04-13T17:42:50.229Z,99503.84
2023-04-13T17:45:20.387Z,99499.47
2023-04-13T17:47:49.526Z,99507.28
2023-04-13T17:50:18.490Z,99510.78
2023-04-13T17:52:47.760Z,99522.22
2023-04-13T17:55:16.624Z,99515.88
2023-04-13T17:57:45.807Z,99523.81
2023-04-13T18:00:16.377Z,99530.09
2023-04-13T18:02:50.385Z,99532.47
2023-04-13T18:05:19.435Z,99538.06
2023-04-13T18:07:48.485Z,99539.72
2023-04-13T18:10:17.261Z,99540.97
2023-04-13T18:12:46.239Z,99538.63
2023-04-13T18:15:14.987Z,99540.84
2023-04-13T18:17:44.015Z,99553.88
2023-04-13T18:20:14.460Z,99554.31
2023-04-13T18:22:43.621Z,99559.72
2023-04-13T18:25:12.296Z,99557.47
2023-04-13T18:27:41.787Z,99561.34
2023-04-13T18:30:13.042Z,99567.88
2023-04-13T18:32:42.074Z,99569.13
2023-04-13T18:35:13.368Z,99567.84
2023-04-13T18:37:42.339Z,99563.16
2023-04-13T18:40:12.433Z,99573.41
2023-04-13T18:42:42.058Z,99572.97
2023-04-13T18:45:12.133Z,99576.84
2023-04-13T18:47:41.183Z,99576.25
2023-04-13T18:50:11.879Z,99581.25
2023-04-13T18:52:42.146Z,99579.97
2023-04-13T18:55:11.244Z,99585.09
2023-04-13T18:57:41.710Z,99585.50
2023-04-13T19:00:11.656Z,99587.97
2023-04-13T19:02:42.213Z,99592.50
2023-04-13T19:05:13.426Z,99584.75
2023-04-13T19:07:45.751Z,99591.25
2023-04-13T19:10:14.383Z,99588.59
2023-04-13T19:12:43.380Z,99588.72
2023-04-13T19:15:12.852Z,99586.41
2023-04-13T19:17:42.053Z,99594.19
2023-04-13T19:20:13.404Z,99592.28
2023-04-13T19:22:44.045Z,99588.28
2023-04-13T19:25:15.359Z,99590.13
2023-04-13T19:27:46.221Z,99586.00
2023-04-13T19:30:16.826Z,99585.03
2023-04-13T19:32:48.971Z,99586.41
2023-04-13T19:35:18.620Z,99573.22
2023-04-13T19:37:49.289Z,99574.91
2023-04-13T19:40:17.961Z,99583.53
2023-04-13T19:42:48.369Z,99592.13
2023-04-13T19:45:17.326Z,99588.78
2023-04-13T19:47:47.006Z,99584.22
2023-04-13T19:50:16.709Z,99592.25
2023-04-13T19:52:47.470Z,99589.75
2023-04-13T19:55:17.634Z,99596.72
2023-04-13T19:57:46.552Z,99594.97
2023-04-13T20:00:20.610Z,99602.50
2023-04-13T20:02:52.508Z,99599.88
2023-04-13T20:05:22.477Z,99597.09
2023-04-13T20:07:51.405Z,99592.38
2023-04-13T20:10:21.472Z,99595.44
2023-04-13T20:12:50.733Z,99598.09
2023-04-13T20:15:19.489Z,99589.09
2023-04-13T20:17:51.314Z,99595.19
2023-04-13T20:20:21.861Z,99596.88
2023-04-13T20:22:52.841Z,99594.66
2023-04-13T20:25:22.931Z,99600.91
2023-04-13T20:27:51.868Z,99608.81
2023-04-13T20:30:20.759Z,99605.59
2023-04-13T20:32:49.850Z,99612.97
2023-04-13T20:35:18.872Z,99602.41
2023-04-13T20:37:48.135Z,99606.13
2023-04-13T20:40:17.834Z,99606.25
2023-04-13T20:42:48.450Z,99605.69
2023-04-13T20:45:18.380Z,99607.66
2023-04-13T20:47:50.503Z,99613.75
2023-04-13T20:50:23.860Z,99617.50
2023-04-13T20:52:56.690Z,99615.25
2023-04-13T20:55:26.224Z,99621.06
2023-04-13T20:57:56.589Z,99613.31
2023-04-13T21:00:27.972Z,99615.38
2023-04-13T21:02:57.972Z,99615.38
2023-04-13T21:05:27.018Z,99614.78
2023-04-13T21:07:57.185Z,99617.56
2023-04-13T21:10:26.158Z,99623.09
2023-04-13T21:12:56.441Z,99623.47
2023-04-13T21:15:25.120Z,99624.72
2023-04-13T21:17:54.067Z,99624.97
2023-04-13T21:20:23.936Z,99633.28
2023-04-13T21:22:52.869Z,99636.84
2023-04-13T21:25:21.681Z,99633.78
2023-04-13T21:27:50.661Z,99630.44
2023-04-13T21:30:20.994Z,99632.38
2023-04-13T21:32:50.577Z,99626.66
2023-04-13T21:35:19.571Z,99629.69
2023-04-13T21:37:48.530Z,99625.53
2023-04-13T21:40:18.376Z,99632.00
2023-04-13T21:42:47.427Z,99633.09
2023-04-13T21:45:16.331Z,99628.91
2023-04-13T21:47:47.236Z,99630.16
2023-04-13T21:50:16.069Z,99630.03
2023-04-13T21:52:45.192Z,99625.00
2023-04-13T21:55:18.154Z,99624.44
2023-04-13T21:57:47.256Z,99627.19
2023-04-13T22:00:18.041Z,99631.06
2023-04-13T22:02:49.269Z,99632.81
2023-04-13T22:05:18.171Z,99635.88
2023-04-13T22:07:47.329Z,99626.25
2023-04-13T22:10:16.014Z,99636.09
2023-04-13T22:12:45.026Z,99631.19
2023-04-13T22:15:13.688Z,99634.06
2023-04-13T22:17:42.669Z,99630.50
2023-04-13T22:20:13.512Z,99628.94
2023-04-13T22:22:42.435Z,99627.97
2023-04-13T22:25:11.332Z,99636.00
2023-04-13T22:27:40.375Z,99640.31
2023-04-13T22:30:10.561Z,99638.06
2023-04-13T22:32:39.575Z,99636.97
2023-04-13T22:35:09.299Z,99634.72
2023-04-13T22:37:39.636Z,99642.50
2023-04-13T22:40:09.819Z,99640.94
2023-04-13T22:42:38.781Z,99633.91
2023-04-13T22:45:09.068Z,99641.06
2023-04-13T22:47:38.158Z,99634.84
2023-04-13T22:50:08.558Z,99638.69
2023-04-13T22:52:38.889Z,99639.28
2023-04-13T22:55:08.164Z,99640.59
2023-04-13T22:57:37.242Z,99638.81
2023-04-13T23:00:06.978Z,99637.13
2023-04-13T23:02:36.136Z,99639.06
2023-04-13T23:05:05.607Z,99635.59
2023-04-13T23:07:34.902Z,99638.25
2023-04-13T23:10:05.737Z,99634.03
2023-04-13T23:12:34.652Z,99635.28
2023-04-13T23:15:03.817Z,99633.34
2023-04-13T23:17:32.751Z,99629.16
2023-04-13T23:20:01.556Z,99629.28
2023-04-13T23:22:31.358Z,99629.16
2023-04-13T23:25:00.368Z,99625.94
2023-04-13T23:27:30.723Z,99623.44
2023-04-13T23:29:59.401Z,99636.69
2023-04-13T23:32:28.486Z,99634.06
2023-04-13T23:34:57.333Z,99629.78
2023-04-13T23:37:26.398Z,99632.31
2023-04-13T23:39:55.457Z,99629.78
2023-04-13T23:42:24.551Z,99626.19
2023-04-13T23:44:54.628Z,99628.69
2023-04-13T23:47:23.779Z,99631.31
2023-04-13T23:49:54.180Z,99631.06
2023-04-13T23:52:24.318Z,99636.59
2023-04-13T23:54:53.027Z,99640.91
2023-04-13T23:57:22.536Z,99643.66
2023-04-13T23:59:58.172Z,99640.91
